sensor_id;sensor_type;location;lat;lon;timestamp;temperature;humidity
3896;DHT22;1963;48.804;8.358;2023-02-12T04:12:27;6.00;87.70
3896;DHT22;1963;48.804;8.358;2023-02-12T04:26:53;6.00;87.00
3896;DHT22;1963;48.804;8.358;2023-02-12T05:01:41;6.00;86.70
3896;DHT22;1963;48.804;8.358;2023-02-12T05:04:11;6.10;90.40
3896;DHT22;1963;48.804;8.358;2023-02-12T05:06:53;6.00;88.10
3896;DHT22;1963;48.804;8.358;2023-02-12T05:09:34;6.00;86.70
3896;DHT22;1963;48.804;8.358;2023-02-12T05:12:23;6.00;89.40
3896;DHT22;1963;48.804;8.358;2023-02-12T05:14:56;6.00;90.50
3896;DHT22;1963;48.804;8.358;2023-02-12T05:17:36;6.00;90.90
3896;DHT22;1963;48.804;8.358;2023-02-12T05:20:05;6.00;89.00
3896;DHT22;1963;48.804;8.358;2023-02-12T05:22:52;6.00;89.40
3896;DHT22;1963;48.804;8.358;2023-02-12T05:25:20;6.00;90.80
3896;DHT22;1963;48.804;8.358;2023-02-12T05:27:48;6.00;90.20
3896;DHT22;1963;48.804;8.358;2023-02-12T05:30:31;6.10;88.40
3896;DHT22;1963;48.804;8.358;2023-02-12T05:33:06;6.10;87.00
3896;DHT22;1963;48.804;8.358;2023-02-12T05:35:42;5.90;90.20
3896;DHT22;1963;48.804;8.358;2023-02-12T05:38:14;6.10;90.20
3896;DHT22;1963;48.804;8.358;2023-02-12T05:40:45;5.90;89.70
3896;DHT22;1963;48.804;8.358;2023-02-12T05:43:34;6.10;90.40
3896;DHT22;1963;48.804;8.358;2023-02-12T05:46:15;6.10;88.30
3896;DHT22;1963;48.804;8.358;2023-02-12T05:48:51;6.10;90.90
3896;DHT22;1963;48.804;8.358;2023-02-12T05:51:26;6.10;90.20
3896;DHT22;1963;48.804;8.358;2023-02-12T05:53:56;6.10;90.30
3896;DHT22;1963;48.804;8.358;2023-02-12T05:56:27;6.10;90.90
3896;DHT22;1963;48.804;8.358;2023-02-12T05:59:05;6.20;91.00
3896;DHT22;1963;48.804;8.358;2023-02-12T06:01:36;6.20;91.80
3896;DHT22;1963;48.804;8.358;2023-02-12T06:04:15;6.10;92.10
3896;DHT22;1963;48.804;8.358;2023-02-12T06:06:51;6.10;90.50
3896;DHT22;1963;48.804;8.358;2023-02-12T06:09:25;6.30;90.80
3896;DHT22;1963;48.804;8.358;2023-02-12T06:11:53;6.20;90.30
3896;DHT22;1963;48.804;8.358;2023-02-12T06:14:29;6.20;90.00
3896;DHT22;1963;48.804;8.358;2023-02-12T06:16:59;6.20;90.00
3896;DHT22;1963;48.804;8.358;2023-02-12T06:19:29;6.20;90.20
3896;DHT22;1963;48.804;8.358;2023-02-12T06:22:05;6.10;90.70
3896;DHT22;1963;48.804;8.358;2023-02-12T06:25:00;6.20;89.10
3896;DHT22;1963;48.804;8.358;2023-02-12T06:27:28;6.10;88.10
3896;DHT22;1963;48.804;8.358;2023-02-12T06:30:07;6.10;88.40
3896;DHT22;1963;48.804;8.358;2023-02-12T06:32:49;6.00;89.80
3896;DHT22;1963;48.804;8.358;2023-02-12T06:35:44;5.90;87.60
3896;DHT22;1963;48.804;8.358;2023-02-12T06:38:26;5.80;90.20
3896;DHT22;1963;48.804;8.358;2023-02-12T06:41:07;5.70;87.90
3896;DHT22;1963;48.804;8.358;2023-02-12T06:44:10;5.60;88.60
3896;DHT22;1963;48.804;8.358;2023-02-12T06:50:17;5.40;89.70
3896;DHT22;1963;48.804;8.358;2023-02-12T06:52:57;5.30;87.50
3896;DHT22;1963;48.804;8.358;2023-02-12T06:55:39;5.30;86.80
3896;DHT22;1963;48.804;8.358;2023-02-12T06:58:07;5.20;88.90
3896;DHT22;1963;48.804;8.358;2023-02-12T07:04:26;5.00;90.10
3896;DHT22;1963;48.804;8.358;2023-02-12T07:07:21;4.80;91.20
3896;DHT22;1963;48.804;8.358;2023-02-12T07:10:15;4.80;90.80
3896;DHT22;1963;48.804;8.358;2023-02-12T11:12:53;18.90;62.40
3896;DHT22;1963;48.804;8.358;2023-02-12T11:16:00;18.40;60.80
3896;DHT22;1963;48.804;8.358;2023-02-12T13:45:39;12.20;71.90
3896;DHT22;1963;48.804;8.358;2023-02-12T13:51:22;12.30;71.50
3896;DHT22;1963;48.804;8.358;2023-02-12T13:54:00;12.40;71.20
3896;DHT22;1963;48.804;8.358;2023-02-12T13:56:37;12.40;71.50
3896;DHT22;1963;48.804;8.358;2023-02-12T13:59:41;12.50;71.30
3896;DHT22;1963;48.804;8.358;2023-02-12T14:02:41;12.40;71.30
3896;DHT22;1963;48.804;8.358;2023-02-12T14:05:35;12.40;71.50
3896;DHT22;1963;48.804;8.358;2023-02-12T14:08:04;12.40;71.50
3896;DHT22;1963;48.804;8.358;2023-02-12T14:10:42;12.50;71.60
3896;DHT22;1963;48.804;8.358;2023-02-12T14:13:31;12.60;71.30
3896;DHT22;1963;48.804;8.358;2023-02-12T14:16:39;12.50;71.70
3896;DHT22;1963;48.804;8.358;2023-02-12T14:19:37;12.50;71.40
3896;DHT22;1963;48.804;8.358;2023-02-12T14:25:30;12.60;71.80
3896;DHT22;1963;48.804;8.358;2023-02-12T14:28:06;12.60;71.90
3896;DHT22;1963;48.804;8.358;2023-02-12T14:30:36;12.60;72.00
3896;DHT22;1963;48.804;8.358;2023-02-12T14:33:22;12.60;72.10
3896;DHT22;1963;48.804;8.358;2023-02-12T14:36:19;12.60;71.90
3896;DHT22;1963;48.804;8.358;2023-02-12T14:39:28;12.50;71.10
3896;DHT22;1963;48.804;8.358;2023-02-12T14:45:31;12.50;71.80
3896;DHT22;1963;48.804;8.358;2023-02-12T14:48:43;12.50;71.40
3896;DHT22;1963;48.804;8.358;2023-02-12T14:51:15;12.50;71.60
3896;DHT22;1963;48.804;8.358;2023-02-12T14:53:48;12.50;71.70
3896;DHT22;1963;48.804;8.358;2023-02-12T14:56:20;12.60;71.40
3896;DHT22;1963;48.804;8.358;2023-02-12T14:58:49;12.60;71.40
3896;DHT22;1963;48.804;8.358;2023-02-12T15:01:22;12.70;71.50
3896;DHT22;1963;48.804;8.358;2023-02-12T15:04:15;12.50;71.00
3896;DHT22;1963;48.804;8.358;2023-02-12T15:06:56;12.40;70.80
3896;DHT22;1963;48.804;8.358;2023-02-12T15:09:36;12.50;71.60
3896;DHT22;1963;48.804;8.358;2023-02-12T15:12:13;12.50;71.30
3896;DHT22;1963;48.804;8.358;2023-02-12T15:14:49;12.50;71.40
3896;DHT22;1963;48.804;8.358;2023-02-12T15:17:20;12.50;71.70
3896;DHT22;1963;48.804;8.358;2023-02-12T15:19:54;12.50;71.60
3896;DHT22;1963;48.804;8.358;2023-02-12T15:22:30;12.40;71.20
3896;DHT22;1963;48.804;8.358;2023-02-12T15:25:21;12.40;71.00
3896;DHT22;1963;48.804;8.358;2023-02-12T15:27:53;12.40;71.20
3896;DHT22;1963;48.804;8.358;2023-02-12T15:30:24;12.30;71.40
3896;DHT22;1963;48.804;8.358;2023-02-12T15:32:54;12.30;71.80
3896;DHT22;1963;48.804;8.358;2023-02-12T15:35:25;12.40;71.70
3896;DHT22;1963;48.804;8.358;2023-02-12T15:37:54;12.20;71.60
3896;DHT22;1963;48.804;8.358;2023-02-12T15:40:31;12.20;71.70
3896;DHT22;1963;48.804;8.358;2023-02-12T15:43:04;12.20;71.70
3896;DHT22;1963;48.804;8.358;2023-02-12T15:45:38;12.10;71.50
3896;DHT22;1963;48.804;8.358;2023-02-12T15:48:18;12.20;71.50
3896;DHT22;1963;48.804;8.358;2023-02-12T15:50:50;12.20;71.50
3896;DHT22;1963;48.804;8.358;2023-02-12T15:53:21;12.10;71.10
3896;DHT22;1963;48.804;8.358;2023-02-12T15:55:51;12.10;71.50
3896;DHT22;1963;48.804;8.358;2023-02-12T15:58:22;12.00;71.60
3896;DHT22;1963;48.804;8.358;2023-02-12T16:00:51;12.00;71.70
3896;DHT22;1963;48.804;8.358;2023-02-12T16:03:21;12.00;71.60
3896;DHT22;1963;48.804;8.358;2023-02-12T16:05:53;11.90;71.60
3896;DHT22;1963;48.804;8.358;2023-02-12T16:08:36;11.90;71.80
3896;DHT22;1963;48.804;8.358;2023-02-12T16:11:15;11.80;71.80
3896;DHT22;1963;48.804;8.358;2023-02-12T16:13:56;11.70;71.70
3896;DHT22;1963;48.804;8.358;2023-02-12T16:16:44;11.60;72.10
3896;DHT22;1963;48.804;8.358;2023-02-12T16:19:20;11.50;71.80
3896;DHT22;1963;48.804;8.358;2023-02-12T16:21:58;11.40;71.80
3896;DHT22;1963;48.804;8.358;2023-02-12T16:24:34;11.30;71.90
3896;DHT22;1963;48.804;8.358;2023-02-12T16:27:08;11.30;71.90
3896;DHT22;1963;48.804;8.358;2023-02-12T16:29:45;11.30;71.70
3896;DHT22;1963;48.804;8.358;2023-02-12T16:32:34;11.20;71.60
3896;DHT22;1963;48.804;8.358;2023-02-12T16:35:21;11.10;71.60
3896;DHT22;1963;48.804;8.358;2023-02-12T16:37:52;11.10;71.40
3896;DHT22;1963;48.804;8.358;2023-02-12T16:40:28;11.00;71.80
3896;DHT22;1963;48.804;8.358;2023-02-12T16:43:00;10.90;71.70
3896;DHT22;1963;48.804;8.358;2023-02-12T16:46:16;10.80;71.60
3896;DHT22;1963;48.804;8.358;2023-02-12T16:52:27;10.50;73.60
3896;DHT22;1963;48.804;8.358;2023-02-12T16:54:57;10.40;73.60
3896;DHT22;1963;48.804;8.358;2023-02-12T16:57:25;10.30;73.70
3896;DHT22;1963;48.804;8.358;2023-02-12T16:59:55;10.20;73.20
3896;DHT22;1963;48.804;8.358;2023-02-12T17:02:23;10.10;73.50
3896;DHT22;1963;48.804;8.358;2023-02-12T17:04:53;10.10;74.70
3896;DHT22;1963;48.804;8.358;2023-02-12T17:07:26;10.10;74.50
3896;DHT22;1963;48.804;8.358;2023-02-12T17:09:56;10.00;76.30
3896;DHT22;1963;48.804;8.358;2023-02-12T17:15:57;9.80;77.00
3896;DHT22;1963;48.804;8.358;2023-02-12T17:22:23;9.70;76.30
3896;DHT22;1963;48.804;8.358;2023-02-12T17:24:52;9.60;76.20
3896;DHT22;1963;48.804;8.358;2023-02-12T17:31:50;9.50;76.40
3896;DHT22;1963;48.804;8.358;2023-02-12T17:34:19;9.40;78.00
3896;DHT22;1963;48.804;8.358;2023-02-12T17:36:48;9.40;77.70
3896;DHT22;1963;48.804;8.358;2023-02-12T17:39:19;9.30;77.50
3896;DHT22;1963;48.804;8.358;2023-02-12T17:41:47;9.30;77.70
3896;DHT22;1963;48.804;8.358;2023-02-12T17:44:15;9.40;79.40
3896;DHT22;1963;48.804;8.358;2023-02-12T17:46:43;9.10;78.20
3896;DHT22;1963;48.804;8.358;2023-02-12T17:49:12;9.10;80.40
3896;DHT22;1963;48.804;8.358;2023-02-12T17:51:40;9.10;79.30
3896;DHT22;1963;48.804;8.358;2023-02-12T17:54:08;9.00;78.10
3896;DHT22;1963;48.804;8.358;2023-02-12T17:56:36;8.90;77.10
3896;DHT22;1963;48.804;8.358;2023-02-12T17:59:04;8.90;78.10
3896;DHT22;1963;48.804;8.358;2023-02-12T18:01:32;8.70;78.60
3896;DHT22;1963;48.804;8.358;2023-02-12T18:04:01;8.70;76.90
3896;DHT22;1963;48.804;8.358;2023-02-12T18:06:31;8.70;78.90
3896;DHT22;1963;48.804;8.358;2023-02-12T18:08:59;8.50;77.60
3896;DHT22;1963;48.804;8.358;2023-02-12T18:11:28;8.50;78.30
3896;DHT22;1963;48.804;8.358;2023-02-12T18:13:58;8.40;78.80
3896;DHT22;1963;48.804;8.358;2023-02-12T18:16:28;8.30;79.20
3896;DHT22;1963;48.804;8.358;2023-02-12T18:18:56;8.20;81.70
3896;DHT22;1963;48.804;8.358;2023-02-12T18:21:25;8.20;81.40
3896;DHT22;1963;48.804;8.358;2023-02-12T18:23:55;8.20;79.80
3896;DHT22;1963;48.804;8.358;2023-02-12T18:26:23;8.20;78.90
3896;DHT22;1963;48.804;8.358;2023-02-12T18:28:51;8.20;80.70
3896;DHT22;1963;48.804;8.358;2023-02-12T18:31:20;8.10;80.20
3896;DHT22;1963;48.804;8.358;2023-02-12T18:33:48;8.20;80.20
3896;DHT22;1963;48.804;8.358;2023-02-12T18:36:18;8.00;80.50
3896;DHT22;1963;48.804;8.358;2023-02-12T18:38:48;8.00;82.00
3896;DHT22;1963;48.804;8.358;2023-02-12T18:41:19;8.10;82.90
3896;DHT22;1963;48.804;8.358;2023-02-12T18:43:47;8.00;81.30
3896;DHT22;1963;48.804;8.358;2023-02-12T18:46:19;8.00;81.30
3896;DHT22;1963;48.804;8.358;2023-02-12T18:48:50;8.10;81.30
3896;DHT22;1963;48.804;8.358;2023-02-12T18:51:20;8.10;81.10
3896;DHT22;1963;48.804;8.358;2023-02-12T18:53:53;7.90;82.20
3896;DHT22;1963;48.804;8.358;2023-02-12T18:56:22;7.90;83.80
3896;DHT22;1963;48.804;8.358;2023-02-12T18:58:53;7.80;83.60
3896;DHT22;1963;48.804;8.358;2023-02-12T19:01:21;7.80;81.40
3896;DHT22;1963;48.804;8.358;2023-02-12T19:03:53;7.80;82.70
3896;DHT22;1963;48.804;8.358;2023-02-12T19:06:22;7.80;81.80
3896;DHT22;1963;48.804;8.358;2023-02-12T19:08:53;7.70;82.20
3896;DHT22;1963;48.804;8.358;2023-02-12T19:11:23;7.70;81.70
3896;DHT22;1963;48.804;8.358;2023-02-12T19:13:51;7.50;81.40
3896;DHT22;1963;48.804;8.358;2023-02-12T19:16:20;7.50;82.20
3896;DHT22;1963;48.804;8.358;2023-02-12T19:18:50;7.40;81.80
3896;DHT22;1963;48.804;8.358;2023-02-12T19:21:21;7.40;79.60
3896;DHT22;1963;48.804;8.358;2023-02-12T19:23:52;7.40;79.60
3896;DHT22;1963;48.804;8.358;2023-02-12T19:26:22;7.30;82.50
3896;DHT22;1963;48.804;8.358;2023-02-12T19:28:52;7.30;84.10
3896;DHT22;1963;48.804;8.358;2023-02-12T19:31:21;7.30;83.20
3896;DHT22;1963;48.804;8.358;2023-02-12T19:34:15;7.10;82.50
3896;DHT22;1963;48.804;8.358;2023-02-12T19:57:42;6.60;81.10
3896;DHT22;1963;48.804;8.358;2023-02-12T20:04:41;6.30;83.10
3896;DHT22;1963;48.804;8.358;2023-02-12T20:07:14;6.20;80.70
3896;DHT22;1963;48.804;8.358;2023-02-12T20:09:49;6.20;80.90
3896;DHT22;1963;48.804;8.358;2023-02-12T20:12:17;6.10;82.70
3896;DHT22;1963;48.804;8.358;2023-02-12T20:14:47;6.00;82.20
3896;DHT22;1963;48.804;8.358;2023-02-12T20:17:15;5.90;82.90
3896;DHT22;1963;48.804;8.358;2023-02-12T20:19:55;5.90;83.00
3896;DHT22;1963;48.804;8.358;2023-02-12T20:22:25;5.80;83.00
3896;DHT22;1963;48.804;8.358;2023-02-12T20:24:55;5.70;82.50
3896;DHT22;1963;48.804;8.358;2023-02-12T20:27:39;5.60;84.70
3896;DHT22;1963;48.804;8.358;2023-02-12T20:30:14;5.50;81.70
3896;DHT22;1963;48.804;8.358;2023-02-12T20:33:01;5.40;83.60
3896;DHT22;1963;48.804;8.358;2023-02-12T20:35:37;5.40;84.80
3896;DHT22;1963;48.804;8.358;2023-02-12T20:42:03;5.10;86.00
3896;DHT22;1963;48.804;8.358;2023-02-12T20:44:59;4.80;86.90
